Time;durP1;ratioP1;P1;durP2;ratioP2;P2;SDS_P1;SDS_P2;PMS_P1;PMS_P2;Temp;Humidity;BMP_temperature;BMP_pressure;BME280_temperature;BME280_humidity;BME280_pressure;Samples;Min_cycle;Max_cycle;Signal;HPM_P1;HPM_P2
2023/12/07 00:01:52;;;;;;;16.20;6.03;;;;;;;;;;6394426;22;20017;-77
2023/12/07 00:04:18;;;;;;;19.60;6.47;;;;;;;;;;6422852;22;20023;-77
2023/12/07 00:06:43;;;;;;;18.45;6.38;;;;;;;;;;6395967;22;20021;-76
2023/12/07 00:09:08;;;;;;;12.10;5.82;;;;;;;;;;6405070;22;20018;-77
2023/12/07 00:11:34;;;;;;;16.73;5.97;;;;;;;;;;6402566;22;20534;-77
2023/12/07 00:13:59;;;;;;;22.67;7.60;;;;;;;;;;6422765;22;20009;-77
2023/12/07 00:16:24;;;;;;;17.05;6.53;;;;;;;;;;6422343;22;20015;-77
2023/12/07 00:18:50;;;;;;;17.17;6.60;;;;;;;;;;6421716;22;20009;-77
2023/12/07 00:21:15;;;;;;;21.13;7.25;;;;;;;;;;6422783;22;20467;-77
2023/12/07 00:23:40;;;;;;;13.27;5.85;;;;;;;;;;6393931;22;20149;-77
2023/12/07 00:26:06;;;;;;;9.50;4.53;;;;;;;;;;6422818;22;20035;-77
2023/12/07 00:28:31;;;;;;;17.88;6.00;;;;;;;;;;6397797;22;20006;-77
2023/12/07 00:30:57;;;;;;;12.73;5.68;;;;;;;;;;6406456;22;20006;-77
2023/12/07 00:33:22;;;;;;;22.83;7.15;;;;;;;;;;6434902;22;20003;-77
2023/12/07 00:35:48;;;;;;;16.90;6.57;;;;;;;;;;6421797;22;20475;-77
2023/12/07 00:38:14;;;;;;;16.88;6.63;;;;;;;;;;6421995;22;20011;-77
2023/12/07 00:40:40;;;;;;;13.88;5.20;;;;;;;;;;6420549;22;20355;-77
2023/12/07 00:43:06;;;;;;;22.42;7.25;;;;;;;;;;6392174;22;20019;-77
2023/12/07 00:45:31;;;;;;;26.65;8.25;;;;;;;;;;6421756;22;20480;-77
2023/12/07 00:47:56;;;;;;;16.60;6.35;;;;;;;;;;6422605;22;20008;-77
2023/12/07 00:50:22;;;;;;;12.07;5.90;;;;;;;;;;6393040;22;20353;-77
2023/12/07 00:52:47;;;;;;;9.50;3.40;;;;;;;;;;6393510;22;20444;-76
2023/12/07 00:55:13;;;;;;;16.98;6.18;;;;;;;;;;6392615;22;20013;-77
2023/12/07 00:57:38;;;;;;;11.98;5.00;;;;;;;;;;6421534;22;20002;-77
2023/12/07 01:00:05;;;;;;;16.25;6.10;;;;;;;;;;6394136;22;20367;-77
2023/12/07 01:02:31;;;;;;;16.83;6.28;;;;;;;;;;6421726;22;20105;-77
2023/12/07 01:04:56;;;;;;;11.88;5.00;;;;;;;;;;6421462;22;20101;-77
2023/12/07 01:07:21;;;;;;;15.38;6.15;;;;;;;;;;6392380;22;20096;-77
2023/12/07 01:09:47;;;;;;;18.05;5.95;;;;;;;;;;6421648;22;20063;-77
2023/12/07 01:12:12;;;;;;;16.88;5.80;;;;;;;;;;6422355;22;20057;-77
2023/12/07 01:14:38;;;;;;;15.05;5.65;;;;;;;;;;6421306;22;20753;-77
2023/12/07 01:17:03;;;;;;;20.20;6.28;;;;;;;;;;6421475;22;20006;-77
2023/12/07 01:19:29;;;;;;;19.73;6.88;;;;;;;;;;6421442;22;20006;-77
2023/12/07 01:21:54;;;;;;;19.10;6.43;;;;;;;;;;6421991;22;20009;-76
2023/12/07 01:24:19;;;;;;;17.55;6.55;;;;;;;;;;6422085;22;20344;-76
2023/12/07 01:26:45;;;;;;;18.83;6.78;;;;;;;;;;6421955;22;20069;-76
2023/12/07 01:29:10;;;;;;;10.27;4.97;;;;;;;;;;6421288;22;20018;-76
2023/12/07 01:31:36;;;;;;;17.17;6.68;;;;;;;;;;6421964;22;20077;-76
2023/12/07 01:34:01;;;;;;;22.45;7.88;;;;;;;;;;6392840;22;20088;-76
2023/12/07 01:36:26;;;;;;;20.25;6.65;;;;;;;;;;6422392;22;20095;-77
2023/12/07 01:38:52;;;;;;;20.50;7.15;;;;;;;;;;6421746;22;20001;-77
2023/12/07 01:41:18;;;;;;;20.88;7.25;;;;;;;;;;6393231;22;20037;-77
2023/12/07 01:43:46;;;;;;;17.35;7.10;;;;;;;;;;6392831;22;20108;-77
2023/12/07 01:46:13;;;;;;;16.75;6.05;;;;;;;;;;6393865;22;20005;-77
2023/12/07 01:48:38;;;;;;;19.90;7.00;;;;;;;;;;6425993;22;20084;-77
2023/12/07 01:51:04;;;;;;;26.13;7.50;;;;;;;;;;6410276;22;20077;-77
2023/12/07 01:53:29;;;;;;;18.42;6.95;;;;;;;;;;6444356;22;20006;-77
2023/12/07 01:55:55;;;;;;;17.75;6.30;;;;;;;;;;6428661;22;20071;-77
2023/12/07 01:58:21;;;;;;;18.10;6.47;;;;;;;;;;6424212;22;20099;-77
2023/12/07 02:00:47;;;;;;;25.10;8.02;;;;;;;;;;6423717;22;20020;-77
2023/12/07 02:03:13;;;;;;;15.70;6.97;;;;;;;;;;6422746;22;20025;-77
2023/12/07 02:05:42;;;;;;;21.67;7.55;;;;;;;;;;6394975;22;20017;-77
2023/12/07 02:08:08;;;;;;;18.33;7.18;;;;;;;;;;6394534;22;20012;-77
2023/12/07 02:10:34;;;;;;;14.02;5.70;;;;;;;;;;6423301;22;20348;-77
2023/12/07 02:12:59;;;;;;;18.10;6.97;;;;;;;;;;6394636;22;20003;-77
2023/12/07 02:15:25;;;;;;;15.20;5.90;;;;;;;;;;6394448;22;20021;-77
2023/12/07 02:18:15;;;;;;;19.27;6.70;;;;;;;;;;6423893;22;20476;-77
2023/12/07 02:20:51;;;;;;;19.35;7.13;;;;;;;;;;6422688;22;20020;-77
2023/12/07 02:23:17;;;;;;;18.38;7.90;;;;;;;;;;6394215;22;20020;-77
2023/12/07 02:25:54;;;;;;;22.40;8.18;;;;;;;;;;6394049;22;20100;-77
2023/12/07 02:28:19;;;;;;;23.20;8.55;;;;;;;;;;6423568;22;20036;-77
2023/12/07 02:30:45;;;;;;;18.85;6.65;;;;;;;;;;6393600;22;20009;-77
2023/12/07 02:33:11;;;;;;;18.70;6.75;;;;;;;;;;6423902;22;20023;-77
2023/12/07 02:35:38;;;;;;;24.50;8.68;;;;;;;;;;6394023;22;20013;-77
2023/12/07 02:38:05;;;;;;;21.65;7.95;;;;;;;;;;6422298;22;20065;-77
2023/12/07 02:40:31;;;;;;;18.67;7.13;;;;;;;;;;6422412;22;20452;-77
2023/12/07 02:42:57;;;;;;;17.17;6.28;;;;;;;;;;6394367;22;20089;-76
2023/12/07 02:45:23;;;;;;;22.05;7.68;;;;;;;;;;6393908;22;20009;-77
2023/12/07 02:47:48;;;;;;;15.05;5.20;;;;;;;;;;6423389;22;20028;-77
2023/12/07 02:50:14;;;;;;;25.85;8.93;;;;;;;;;;6422694;22;20009;-77
2023/12/07 02:52:39;;;;;;;21.02;7.97;;;;;;;;;;6423125;22;20021;-76
2023/12/07 02:55:06;;;;;;;22.13;8.48;;;;;;;;;;6421978;22;20402;-77
2023/12/07 02:57:33;;;;;;;20.13;8.38;;;;;;;;;;6422056;22;20001;-77
2023/12/07 02:59:59;;;;;;;19.08;7.60;;;;;;;;;;6394402;22;20008;-77
2023/12/07 03:02:24;;;;;;;19.13;7.30;;;;;;;;;;6422796;22;20013;-77
2023/12/07 03:04:49;;;;;;;27.60;8.32;;;;;;;;;;6422402;22;20484;-77
2023/12/07 03:07:15;;;;;;;21.00;7.35;;;;;;;;;;6395106;22;20002;-77
2023/12/07 03:09:40;;;;;;;27.73;7.97;;;;;;;;;;6398398;22;20012;-77
2023/12/07 03:12:06;;;;;;;19.23;7.82;;;;;;;;;;6408727;22;19994;-78
2023/12/07 03:14:32;;;;;;;16.58;7.03;;;;;;;;;;6430714;22;20006;-77
2023/12/07 03:16:58;;;;;;;23.88;7.40;;;;;;;;;;6393788;22;20677;-77
2023/12/07 03:19:23;;;;;;;23.50;7.22;;;;;;;;;;6422114;22;20032;-77
2023/12/07 03:21:48;;;;;;;20.45;6.97;;;;;;;;;;6422087;22;20013;-77
2023/12/07 03:24:14;;;;;;;21.95;7.80;;;;;;;;;;6393983;22;19997;-77
2023/12/07 03:26:40;;;;;;;20.80;7.60;;;;;;;;;;6421922;22;20535;-77
2023/12/07 03:29:05;;;;;;;12.75;6.35;;;;;;;;;;6418046;22;20010;-77
2023/12/07 03:31:31;;;;;;;23.30;7.95;;;;;;;;;;6422776;22;20010;-77
2023/12/07 03:33:56;;;;;;;17.52;6.80;;;;;;;;;;6422181;22;20028;-77
2023/12/07 03:36:22;;;;;;;24.88;8.13;;;;;;;;;;6394934;22;20637;-77
2023/12/07 03:38:48;;;;;;;18.67;7.75;;;;;;;;;;6394094;22;20070;-77
2023/12/07 03:41:14;;;;;;;16.70;5.95;;;;;;;;;;6422657;22;20055;-77
2023/12/07 03:43:39;;;;;;;17.20;7.15;;;;;;;;;;6393420;22;20380;-77
2023/12/07 03:46:08;;;;;;;17.30;6.75;;;;;;;;;;6393804;22;20006;-77
2023/12/07 03:48:34;;;;;;;25.90;7.82;;;;;;;;;;6422759;22;20006;-77
2023/12/07 03:51:00;;;;;;;10.70;4.95;;;;;;;;;;6423322;22;20028;-77
2023/12/07 03:53:25;;;;;;;16.50;6.95;;;;;;;;;;6421941;22;20009;-77
2023/12/07 03:55:50;;;;;;;25.10;8.18;;;;;;;;;;6394151;22;20020;-77
2023/12/07 03:58:16;;;;;;;24.67;8.27;;;;;;;;;;6393318;22;20443;-77
2023/12/07 04:00:41;;;;;;;25.13;7.28;;;;;;;;;;6422468;22;20000;-77
2023/12/07 04:03:07;;;;;;;21.73;7.75;;;;;;;;;;6394616;22;20002;-77
2023/12/07 04:05:33;;;;;;;20.90;7.18;;;;;;;;;;6421570;22;20556;-76
2023/12/07 04:07:58;;;;;;;20.00;6.82;;;;;;;;;;6393921;22;20009;-77
2023/12/07 04:10:24;;;;;;;22.40;8.13;;;;;;;;;;6422461;22;20010;-77
2023/12/07 04:12:49;;;;;;;22.98;8.40;;;;;;;;;;6421016;22;20080;-77
2023/12/07 04:15:15;;;;;;;21.75;7.40;;;;;;;;;;6394318;22;20004;-77
2023/12/07 04:17:40;;;;;;;20.80;8.88;;;;;;;;;;6422505;22;20017;-77
2023/12/07 04:20:07;;;;;;;22.05;6.32;;;;;;;;;;6422365;22;20013;-77
2023/12/07 04:22:32;;;;;;;16.58;6.47;;;;;;;;;;6394102;22;20029;-77
2023/12/07 04:24:58;;;;;;;21.80;7.78;;;;;;;;;;6394268;22;20040;-77
2023/12/07 04:27:23;;;;;;;17.23;6.97;;;;;;;;;;6424602;22;20219;-76
2023/12/07 04:29:48;;;;;;;14.38;6.07;;;;;;;;;;6399862;22;20104;-77
2023/12/07 04:32:14;;;;;;;10.13;5.57;;;;;;;;;;6411231;22;20040;-77
2023/12/07 04:34:39;;;;;;;14.93;5.72;;;;;;;;;;6412067;22;20009;-77
2023/12/07 04:37:04;;;;;;;18.70;7.20;;;;;;;;;;6425516;22;20017;-77
2023/12/07 04:39:30;;;;;;;11.13;4.72;;;;;;;;;;6394383;22;20411;-77
2023/12/07 04:41:55;;;;;;;14.63;6.43;;;;;;;;;;6394342;22;19998;-77
2023/12/07 04:44:20;;;;;;;19.58;7.25;;;;;;;;;;6393582;22;20738;-77
2023/12/07 04:46:46;;;;;;;23.83;8.05;;;;;;;;;;6393425;22;20013;-77
2023/12/07 04:49:11;;;;;;;18.35;7.63;;;;;;;;;;6393123;22;20006;-77
2023/12/07 04:51:37;;;;;;;18.88;6.28;;;;;;;;;;6421867;22;20082;-77
2023/12/07 04:54:02;;;;;;;18.95;6.57;;;;;;;;;;6393698;22;20036;-77
2023/12/07 04:56:27;;;;;;;17.08;7.07;;;;;;;;;;6393019;22;20062;-77
2023/12/07 04:58:53;;;;;;;18.08;7.47;;;;;;;;;;6393424;22;20402;-77
2023/12/07 05:01:21;;;;;;;25.70;8.65;;;;;;;;;;6422120;22;20125;-77
2023/12/07 05:03:46;;;;;;;16.42;6.68;;;;;;;;;;6392124;22;20670;-77
2023/12/07 05:06:11;;;;;;;17.10;7.10;;;;;;;;;;6423103;22;19993;-77
2023/12/07 05:08:39;;;;;;;15.00;6.32;;;;;;;;;;6392729;22;20481;-77
2023/12/07 05:11:06;;;;;;;16.48;6.55;;;;;;;;;;6393742;22;20024;-77
2023/12/07 05:13:33;;;;;;;14.18;5.60;;;;;;;;;;6392958;22;20005;-77
2023/12/07 05:15:59;;;;;;;18.08;6.57;;;;;;;;;;6392884;22;20001;-77
2023/12/07 05:18:25;;;;;;;21.02;6.47;;;;;;;;;;6393471;22;20021;-77
2023/12/07 05:20:50;;;;;;;18.23;6.35;;;;;;;;;;6393909;22;20000;-77
2023/12/07 05:23:15;;;;;;;19.05;6.18;;;;;;;;;;6421397;22;20009;-77
2023/12/07 05:25:41;;;;;;;12.68;5.68;;;;;;;;;;6424127;22;20009;-77
2023/12/07 05:28:06;;;;;;;18.70;7.18;;;;;;;;;;6394779;22;20048;-77
2023/12/07 05:30:32;;;;;;;22.15;7.80;;;;;;;;;;6395446;22;19998;-77
2023/12/07 05:32:57;;;;;;;16.45;6.50;;;;;;;;;;6424286;22;20425;-77
2023/12/07 05:35:23;;;;;;;19.83;6.57;;;;;;;;;;6394907;22;20103;-77
2023/12/07 05:37:49;;;;;;;14.70;6.00;;;;;;;;;;6394899;22;20024;-77
2023/12/07 05:40:15;;;;;;;14.43;6.75;;;;;;;;;;6394837;22;20009;-77
2023/12/07 05:42:41;;;;;;;18.85;7.13;;;;;;;;;;6423847;22;20001;-77
2023/12/07 05:45:09;;;;;;;14.60;5.63;;;;;;;;;;6396189;22;20075;-76
2023/12/07 05:47:35;;;;;;;14.38;6.00;;;;;;;;;;6424834;22;20031;-77
2023/12/07 05:50:03;;;;;;;11.18;5.10;;;;;;;;;;6401842;22;20013;-77
2023/12/07 05:52:28;;;;;;;17.80;7.20;;;;;;;;;;6439464;22;20013;-77
2023/12/07 05:54:53;;;;;;;15.18;5.78;;;;;;;;;;6431517;22;20044;-77
2023/12/07 05:57:19;;;;;;;16.65;6.10;;;;;;;;;;6395914;22;20032;-77
2023/12/07 05:59:44;;;;;;;11.85;5.30;;;;;;;;;;6423587;22;20402;-77
2023/12/07 06:02:10;;;;;;;16.83;6.65;;;;;;;;;;6394953;22;20035;-77
2023/12/07 06:04:35;;;;;;;12.00;5.38;;;;;;;;;;6394236;22;20048;-77
2023/12/07 06:07:00;;;;;;;15.52;5.38;;;;;;;;;;6423283;22;20010;-77
2023/12/07 06:09:26;;;;;;;14.90;6.32;;;;;;;;;;6394132;22;19998;-77
2023/12/07 06:11:51;;;;;;;23.25;6.32;;;;;;;;;;6395113;22;20005;-77
2023/12/07 06:14:16;;;;;;;20.77;8.30;;;;;;;;;;6394939;22;20029;-77
2023/12/07 06:16:42;;;;;;;20.85;7.05;;;;;;;;;;6394253;22;20043;-77
2023/12/07 06:19:07;;;;;;;24.30;7.57;;;;;;;;;;6423576;22;20013;-77
2023/12/07 06:21:33;;;;;;;13.43;5.43;;;;;;;;;;6423468;22;20362;-77
2023/12/07 06:24:01;;;;;;;15.00;5.82;;;;;;;;;;6423636;22;20053;-77
2023/12/07 06:26:26;;;;;;;20.40;7.55;;;;;;;;;;6394486;22;20821;-77
2023/12/07 06:28:52;;;;;;;19.08;7.28;;;;;;;;;;6394900;22;20464;-77
2023/12/07 06:31:21;;;;;;;16.13;6.65;;;;;;;;;;6395242;22;20014;-77
2023/12/07 06:33:47;;;;;;;22.63;7.07;;;;;;;;;;6394022;22;20005;-77
2023/12/07 06:36:19;;;;;;;19.70;7.45;;;;;;;;;;6395319;22;19993;-77
2023/12/07 06:38:44;;;;;;;10.00;5.57;;;;;;;;;;6422874;22;20010;-77
2023/12/07 06:41:10;;;;;;;16.85;7.20;;;;;;;;;;6422498;22;20581;-77
2023/12/07 06:43:35;;;;;;;11.23;5.47;;;;;;;;;;6420462;22;22478;-77
2023/12/07 06:46:00;;;;;;;18.42;6.57;;;;;;;;;;6423256;22;20009;-77
2023/12/07 06:48:26;;;;;;;12.60;5.53;;;;;;;;;;6394256;22;20791;-77
2023/12/07 06:50:51;;;;;;;16.40;5.70;;;;;;;;;;6423606;22;20050;-77
2023/12/07 06:53:18;;;;;;;14.10;5.68;;;;;;;;;;6422048;22;20094;-77
2023/12/07 06:55:44;;;;;;;13.95;6.07;;;;;;;;;;6423678;22;20032;-77
2023/12/07 06:58:09;;;;;;;13.27;5.95;;;;;;;;;;6394713;22;20014;-76
2023/12/07 07:00:36;;;;;;;16.70;6.43;;;;;;;;;;6394061;22;20491;-77
2023/12/07 07:03:01;;;;;;;15.65;5.80;;;;;;;;;;6393148;22;20001;-77
2023/12/07 07:05:27;;;;;;;18.52;6.82;;;;;;;;;;6393854;22;20044;-77
2023/12/07 07:07:53;;;;;;;25.23;8.85;;;;;;;;;;6394448;22;20013;-77
2023/12/07 07:10:18;;;;;;;14.63;6.40;;;;;;;;;;6427853;22;20066;-77
2023/12/07 07:12:43;;;;;;;15.20;6.10;;;;;;;;;;6440663;22;20029;-77
2023/12/07 07:15:09;;;;;;;21.38;8.80;;;;;;;;;;6435888;22;20005;-77
2023/12/07 07:17:35;;;;;;;14.90;6.93;;;;;;;;;;6395794;22;20021;-77
2023/12/07 07:20:00;;;;;;;17.17;6.78;;;;;;;;;;6393349;22;20024;-77
2023/12/07 07:22:26;;;;;;;11.65;5.20;;;;;;;;;;6422082;22;20022;-77
2023/12/07 07:24:52;;;;;;;16.40;7.45;;;;;;;;;;6392472;22;20014;-77
2023/12/07 07:27:17;;;;;;;16.17;6.03;;;;;;;;;;6391186;22;20412;-77
2023/12/07 07:29:43;;;;;;;15.32;5.97;;;;;;;;;;6393211;22;20013;-77
2023/12/07 07:32:08;;;;;;;16.70;6.07;;;;;;;;;;6391491;22;20062;-77
2023/12/07 07:34:34;;;;;;;10.07;4.90;;;;;;;;;;6392793;22;20371;-77
2023/12/07 07:36:59;;;;;;;19.45;6.55;;;;;;;;;;6421043;22;20437;-77
2023/12/07 07:39:25;;;;;;;14.43;5.88;;;;;;;;;;6390775;22;20054;-77
2023/12/07 07:41:50;;;;;;;13.32;6.25;;;;;;;;;;6391570;22;20050;-77
2023/12/07 07:44:16;;;;;;;15.02;5.47;;;;;;;;;;6391066;22;20120;-77
2023/12/07 07:46:42;;;;;;;17.17;6.25;;;;;;;;;;6392311;22;20376;-77
2023/12/07 07:49:07;;;;;;;13.60;5.45;;;;;;;;;;6392238;22;20471;-77
2023/12/07 07:51:33;;;;;;;22.10;6.97;;;;;;;;;;6419612;22;20042;-77
2023/12/07 07:53:59;;;;;;;18.90;7.03;;;;;;;;;;6421077;22;19993;-77
2023/12/07 07:56:25;;;;;;;15.98;6.70;;;;;;;;;;6420664;22;20014;-77
2023/12/07 07:58:50;;;;;;;19.42;6.13;;;;;;;;;;6418641;22;20009;-77
2023/12/07 08:01:16;;;;;;;19.67;6.80;;;;;;;;;;6421391;22;20005;-77
2023/12/07 08:03:41;;;;;;;19.10;6.68;;;;;;;;;;6391259;22;20537;-77
2023/12/07 08:06:07;;;;;;;22.30;7.30;;;;;;;;;;6393639;22;20357;-77
2023/12/07 08:08:32;;;;;;;18.05;6.47;;;;;;;;;;6420991;22;20104;-77
2023/12/07 08:10:58;;;;;;;18.67;7.45;;;;;;;;;;6393894;22;20530;-77
2023/12/07 08:13:23;;;;;;;14.60;5.88;;;;;;;;;;6393383;22;20005;-77
2023/12/07 08:15:48;;;;;;;17.15;6.28;;;;;;;;;;6393057;22;20001;-77
2023/12/07 08:18:14;;;;;;;19.20;6.93;;;;;;;;;;6421597;22;19998;-77
2023/12/07 08:20:42;;;;;;;17.30;6.90;;;;;;;;;;6392948;22;20729;-77
2023/12/07 08:23:08;;;;;;;15.05;6.03;;;;;;;;;;6423246;22;20013;-77
2023/12/07 08:25:33;;;;;;;14.55;6.07;;;;;;;;;;6393882;22;20220;-77
2023/12/07 08:27:58;;;;;;;15.13;6.63;;;;;;;;;;6423779;22;20085;-77
2023/12/07 08:30:24;;;;;;;15.23;6.10;;;;;;;;;;6431571;22;19997;-78
2023/12/07 08:32:49;;;;;;;18.98;6.30;;;;;;;;;;6437106;22;20015;-77
2023/12/07 08:35:15;;;;;;;14.32;6.95;;;;;;;;;;6422086;22;20020;-76
2023/12/07 08:37:40;;;;;;;15.02;5.97;;;;;;;;;;6420773;22;20009;-77
2023/12/07 08:40:06;;;;;;;15.63;6.65;;;;;;;;;;6391298;22;20001;-77
2023/12/07 08:42:32;;;;;;;23.25;7.95;;;;;;;;;;6390912;22;20381;-77
2023/12/07 08:44:57;;;;;;;17.40;6.05;;;;;;;;;;6421261;22;19998;-77
2023/12/07 08:47:23;;;;;;;16.70;6.60;;;;;;;;;;6391974;22;20020;-77
2023/12/07 08:49:49;;;;;;;17.77;6.75;;;;;;;;;;6392372;22;20059;-77
2023/12/07 08:52:14;;;;;;;17.40;6.45;;;;;;;;;;6392719;22;20847;-77
2023/12/07 08:54:39;;;;;;;19.42;7.05;;;;;;;;;;6392994;22;19998;-77
2023/12/07 08:57:05;;;;;;;15.00;6.22;;;;;;;;;;6394053;22;20084;-78
2023/12/07 08:59:30;;;;;;;20.27;6.05;;;;;;;;;;6394843;22;20020;-76
2023/12/07 09:01:56;;;;;;;13.57;5.85;;;;;;;;;;6394167;22;20009;-77
2023/12/07 09:04:21;;;;;;;14.70;7.35;;;;;;;;;;6395117;22;20602;-77
2023/12/07 09:06:47;;;;;;;20.42;5.97;;;;;;;;;;6423053;22;20009;-77
2023/12/07 09:09:12;;;;;;;15.18;6.72;;;;;;;;;;6423396;22;20425;-77
2023/12/07 09:11:37;;;;;;;13.95;6.47;;;;;;;;;;6395217;22;20491;-77
2023/12/07 09:14:03;;;;;;;15.18;6.80;;;;;;;;;;6422944;22;20009;-77
2023/12/07 09:16:28;;;;;;;11.52;5.65;;;;;;;;;;6395320;22;20009;-76
2023/12/07 09:18:54;;;;;;;15.43;6.78;;;;;;;;;;6394860;22;20005;-77
2023/12/07 09:21:19;;;;;;;19.58;7.10;;;;;;;;;;6395126;22;19994;-77
2023/12/07 09:23:45;;;;;;;13.93;7.07;;;;;;;;;;6395048;22;20020;-77
2023/12/07 09:26:10;;;;;;;16.55;6.57;;;;;;;;;;6423782;22;20013;-76
2023/12/07 09:28:35;;;;;;;13.63;6.07;;;;;;;;;;6424060;22;20001;-76
2023/12/07 09:31:01;;;;;;;11.63;5.60;;;;;;;;;;6422969;22;20013;-77
2023/12/07 09:33:26;;;;;;;17.08;5.68;;;;;;;;;;6394710;22;20001;-77
2023/12/07 09:35:52;;;;;;;14.57;6.80;;;;;;;;;;6422722;22;19989;-77
2023/12/07 09:38:17;;;;;;;19.30;7.90;;;;;;;;;;6394120;22;20013;-77
2023/12/07 09:40:43;;;;;;;13.50;6.50;;;;;;;;;;6393962;22;20019;-78
2023/12/07 09:43:08;;;;;;;13.60;5.65;;;;;;;;;;6394322;22;20016;-77
2023/12/07 09:45:34;;;;;;;12.75;5.90;;;;;;;;;;6423540;22;20057;-77
2023/12/07 09:48:00;;;;;;;16.65;6.25;;;;;;;;;;6398807;22;19997;-77
2023/12/07 09:50:27;;;;;;;8.80;4.68;;;;;;;;;;6407147;22;20020;-78
2023/12/07 09:52:56;;;;;;;17.27;6.05;;;;;;;;;;6443956;22;20013;-77
2023/12/07 09:55:22;;;;;;;19.33;6.25;;;;;;;;;;6398951;22;20040;-77
2023/12/07 09:57:49;;;;;;;17.85;6.03;;;;;;;;;;6423570;22;20005;-77
2023/12/07 10:00:16;;;;;;;12.18;5.82;;;;;;;;;;6422658;22;19997;-78
2023/12/07 10:02:45;;;;;;;7.05;3.83;;;;;;;;;;6421768;22;20018;-77
2023/12/07 10:05:13;;;;;;;14.13;5.75;;;;;;;;;;6421315;22;20025;-77
2023/12/07 10:07:47;;;;;;;11.82;5.05;;;;;;;;;;6393277;22;20032;-77
2023/12/07 10:10:13;;;;;;;15.15;5.65;;;;;;;;;;6421180;22;20008;-76
2023/12/07 10:12:59;;;;;;;9.70;4.38;;;;;;;;;;6393598;22;20624;-77
2023/12/07 10:15:25;;;;;;;15.15;5.22;;;;;;;;;;6395049;22;20436;-77
2023/12/07 10:17:55;;;;;;;10.73;4.47;;;;;;;;;;6395535;22;20008;-77
2023/12/07 10:20:23;;;;;;;12.45;5.45;;;;;;;;;;6393434;22;20089;-77
2023/12/07 10:23:00;;;;;;;11.02;5.07;;;;;;;;;;6392847;22;20014;-77
2023/12/07 10:25:25;;;;;;;12.38;3.92;;;;;;;;;;6405560;22;20017;-76
2023/12/07 10:27:50;;;;;;;8.07;4.15;;;;;;;;;;6392996;22;20016;-76
2023/12/07 10:30:16;;;;;;;11.63;5.07;;;;;;;;;;6393737;22;19997;-76
2023/12/07 10:32:41;;;;;;;8.30;3.97;;;;;;;;;;6394537;22;20058;-76
2023/12/07 10:35:08;;;;;;;9.82;4.40;;;;;;;;;;6421907;22;20460;-76
2023/12/07 10:37:33;;;;;;;15.63;5.10;;;;;;;;;;6420782;22;20375;-76
2023/12/07 10:39:59;;;;;;;13.25;5.35;;;;;;;;;;6421958;22;20039;-76
2023/12/07 10:42:25;;;;;;;9.55;4.30;;;;;;;;;;6391871;22;20072;-77
2023/12/07 10:44:57;;;;;;;9.82;4.97;;;;;;;;;;6421626;22;20006;-76
2023/12/07 10:47:23;;;;;;;5.78;3.58;;;;;;;;;;6421566;22;20017;-76
2023/12/07 10:49:52;;;;;;;12.40;5.70;;;;;;;;;;6393508;22;20017;-76
2023/12/07 10:52:23;;;;;;;15.50;6.28;;;;;;;;;;6393683;22;20085;-76
2023/12/07 10:55:07;;;;;;;13.77;5.95;;;;;;;;;;6422307;22;20013;-76
2023/12/07 10:57:33;;;;;;;14.20;6.20;;;;;;;;;;6394717;22;20116;-76
2023/12/07 11:00:00;;;;;;;14.65;5.43;;;;;;;;;;6422668;22;20045;-76
2023/12/07 11:02:28;;;;;;;13.55;5.95;;;;;;;;;;6422811;22;20021;-76
2023/12/07 11:04:56;;;;;;;11.82;5.15;;;;;;;;;;6423165;22;20083;-77
2023/12/07 11:07:25;;;;;;;8.73;3.95;;;;;;;;;;6424533;22;20025;-77
2023/12/07 11:10:07;;;;;;;8.13;3.38;;;;;;;;;;6435012;22;20066;-77
2023/12/07 11:12:40;;;;;;;12.25;5.53;;;;;;;;;;6406035;22;20004;-76
2023/12/07 11:15:07;;;;;;;14.02;5.88;;;;;;;;;;6395260;22;20080;-76
2023/12/07 11:17:49;;;;;;;11.70;4.80;;;;;;;;;;6393839;22;20016;-76
2023/12/07 11:20:19;;;;;;;12.07;5.10;;;;;;;;;;6393947;22;20512;-77
2023/12/07 11:22:45;;;;;;;12.65;5.20;;;;;;;;;;6393231;22;20013;-76
2023/12/07 11:25:10;;;;;;;8.90;4.32;;;;;;;;;;6420703;22;20016;-76
2023/12/07 11:27:37;;;;;;;13.55;5.43;;;;;;;;;;6392307;22;19993;-76
2023/12/07 11:30:03;;;;;;;12.57;4.80;;;;;;;;;;6393314;22;20005;-76
2023/12/07 11:32:29;;;;;;;12.18;4.95;;;;;;;;;;6391323;22;20017;-77
2023/12/07 11:34:54;;;;;;;9.80;4.60;;;;;;;;;;6392849;22;20479;-76
2023/12/07 11:37:20;;;;;;;8.73;4.45;;;;;;;;;;6392999;22;20081;-76
2023/12/07 11:39:46;;;;;;;10.63;4.07;;;;;;;;;;6421329;22;20013;-79
2023/12/07 11:42:17;;;;;;;8.25;4.30;;;;;;;;;;6418878;22;19993;-77
2023/12/07 11:44:46;;;;;;;11.90;4.60;;;;;;;;;;6421305;22;20014;-77
2023/12/07 11:47:19;;;;;;;10.25;4.47;;;;;;;;;;6421707;22;20149;-78
2023/12/07 11:49:45;;;;;;;7.20;3.70;;;;;;;;;;6393175;22;20024;-77
2023/12/07 11:52:19;;;;;;;9.20;3.78;;;;;;;;;;6421891;22;20250;-77
2023/12/07 11:54:46;;;;;;;8.75;4.03;;;;;;;;;;6393196;22;20036;-77
2023/12/07 11:57:11;;;;;;;8.32;4.28;;;;;;;;;;6422785;22;20005;-77
2023/12/07 11:59:37;;;;;;;8.27;4.00;;;;;;;;;;6393695;22;20062;-77
2023/12/07 12:02:03;;;;;;;8.27;3.55;;;;;;;;;;6421952;22;20088;-77
2023/12/07 12:04:29;;;;;;;8.48;4.07;;;;;;;;;;6421248;22;20109;-77
2023/12/07 12:06:54;;;;;;;5.80;3.45;;;;;;;;;;6422029;22;20453;-77
2023/12/07 12:09:20;;;;;;;9.13;4.13;;;;;;;;;;6422872;22;20020;-77
2023/12/07 12:11:48;;;;;;;7.10;3.78;;;;;;;;;;6421964;22;20013;-77
2023/12/07 12:14:15;;;;;;;6.22;3.50;;;;;;;;;;6392763;22;20001;-77
2023/12/07 12:16:40;;;;;;;7.68;3.20;;;;;;;;;;6393746;22;20013;-77
2023/12/07 12:19:06;;;;;;;8.50;3.20;;;;;;;;;;6422055;22;20651;-77
2023/12/07 12:21:38;;;;;;;9.57;3.83;;;;;;;;;;6422008;22;19993;-77
2023/12/07 12:24:04;;;;;;;7.32;3.88;;;;;;;;;;6423236;22;20009;-77
2023/12/07 12:26:30;;;;;;;11.63;3.78;;;;;;;;;;6423992;22;20013;-77
2023/12/07 12:28:55;;;;;;;6.65;3.78;;;;;;;;;;6405401;22;20069;-77
2023/12/07 12:31:22;;;;;;;7.03;3.67;;;;;;;;;;6442999;22;20005;-77
2023/12/07 12:33:49;;;;;;;9.43;3.47;;;;;;;;;;6431590;22;20009;-76
2023/12/07 12:36:16;;;;;;;5.35;3.10;;;;;;;;;;6424423;22;20019;-77
2023/12/07 12:38:42;;;;;;;6.60;3.15;;;;;;;;;;6422733;22;20005;-77
2023/12/07 12:41:08;;;;;;;7.40;4.13;;;;;;;;;;6393613;22;20457;-77
2023/12/07 12:43:34;;;;;;;5.78;2.88;;;;;;;;;;6422214;22;20029;-77
2023/12/07 12:45:59;;;;;;;5.85;3.47;;;;;;;;;;6393065;22;20697;-76
2023/12/07 12:48:24;;;;;;;7.97;3.42;;;;;;;;;;6422106;22;20001;-77
2023/12/07 12:50:50;;;;;;;6.72;3.03;;;;;;;;;;6394075;22;20001;-76
2023/12/07 12:53:16;;;;;;;7.88;3.53;;;;;;;;;;6421536;22;20009;-76
2023/12/07 12:55:42;;;;;;;5.95;2.97;;;;;;;;;;6393495;22;20014;-76
2023/12/07 12:58:09;;;;;;;9.95;3.05;;;;;;;;;;6392955;22;20013;-77
2023/12/07 13:00:37;;;;;;;8.45;2.92;;;;;;;;;;6422241;22;19994;-76
2023/12/07 13:03:04;;;;;;;6.22;3.13;;;;;;;;;;6422230;22;20093;-76
2023/12/07 13:05:29;;;;;;;5.82;2.97;;;;;;;;;;6393183;22;20017;-77
2023/12/07 13:07:55;;;;;;;7.45;3.60;;;;;;;;;;6393918;22;20018;-76
2023/12/07 13:10:20;;;;;;;7.43;2.97;;;;;;;;;;6421122;22;20733;-76
2023/12/07 13:12:46;;;;;;;6.28;2.63;;;;;;;;;;6421901;22;20001;-76
2023/12/07 13:15:15;;;;;;;5.90;2.58;;;;;;;;;;6422468;22;20008;-76
2023/12/07 13:17:42;;;;;;;3.78;2.42;;;;;;;;;;6393057;22;20077;-76
2023/12/07 13:20:11;;;;;;;4.60;2.50;;;;;;;;;;6392977;22;20502;-76
2023/12/07 13:22:37;;;;;;;4.93;2.50;;;;;;;;;;6393002;22;20217;-76
2023/12/07 13:25:03;;;;;;;6.95;2.10;;;;;;;;;;6421521;22;20020;-76
2023/12/07 13:27:29;;;;;;;2.88;1.65;;;;;;;;;;6421454;22;20006;-76
2023/12/07 13:29:54;;;;;;;5.28;2.65;;;;;;;;;;6422156;22;19993;-77
2023/12/07 13:32:19;;;;;;;6.35;3.45;;;;;;;;;;6393353;22;20033;-76
2023/12/07 13:34:45;;;;;;;7.93;2.80;;;;;;;;;;6392768;22;20001;-76
2023/12/07 13:37:10;;;;;;;3.70;2.17;;;;;;;;;;6421704;22;20033;-77
2023/12/07 13:39:36;;;;;;;4.57;2.05;;;;;;;;;;6393464;22;20008;-76
2023/12/07 13:42:01;;;;;;;3.60;2.28;;;;;;;;;;6393997;22;19997;-76
2023/12/07 13:44:27;;;;;;;4.07;1.85;;;;;;;;;;6422050;22;20379;-77
2023/12/07 13:46:53;;;;;;;4.63;2.28;;;;;;;;;;6425890;22;20020;-76
2023/12/07 13:49:20;;;;;;;4.03;2.25;;;;;;;;;;6435240;22;20088;-76
2023/12/07 13:51:46;;;;;;;6.20;2.75;;;;;;;;;;6437585;22;20016;-77
2023/12/07 13:54:12;;;;;;;5.97;2.35;;;;;;;;;;6423033;22;19993;-76
2023/12/07 13:56:37;;;;;;;2.42;1.48;;;;;;;;;;6395275;22;20020;-76
2023/12/07 13:59:02;;;;;;;4.15;1.50;;;;;;;;;;6394680;22;20013;-77
2023/12/07 14:01:28;;;;;;;4.20;1.80;;;;;;;;;;6394888;22;20001;-76
2023/12/07 14:03:54;;;;;;;7.65;2.63;;;;;;;;;;6379049;22;20421;-77
2023/12/07 14:06:27;;;;;;;7.53;2.53;;;;;;;;;;6358418;22;20687;-77
2023/12/07 14:08:52;;;;;;;7.03;3.40;;;;;;;;;;6359742;22;20017;-77
2023/12/07 14:11:18;;;;;;;4.97;2.50;;;;;;;;;;6359419;22;20085;-77
2023/12/07 14:13:46;;;;;;;5.35;2.92;;;;;;;;;;6357215;22;20586;-76
2023/12/07 14:16:12;;;;;;;5.57;2.42;;;;;;;;;;6359550;22;20006;-76
2023/12/07 14:18:37;;;;;;;3.13;1.60;;;;;;;;;;6357695;22;20006;-76
2023/12/07 14:21:03;;;;;;;8.48;2.55;;;;;;;;;;6358217;22;20020;-76
2023/12/07 14:23:28;;;;;;;6.85;2.55;;;;;;;;;;6359292;22;20014;-77
2023/12/07 14:25:58;;;;;;;5.10;2.22;;;;;;;;;;6357181;22;20411;-77
2023/12/07 14:28:23;;;;;;;3.65;1.90;;;;;;;;;;6358078;22;20411;-77